Time;durP1;ratioP1;P1;durP2;ratioP2;P2;SDS_P1;SDS_P2;PMS_P1;PMS_P2;Temp;Humidity;BMP_temperature;BMP_pressure;BME280_temperature;BME280_humidity;BME280_pressure;Samples;Min_cycle;Max_cycle;Signal;HPM_P1;HPM_P2
2022/08/07 00:01:59;;;;;;;3.40;2.10;;;;;;;14.37;77.21;102660.16;4994357;28;20096;-79
2022/08/07 00:04:24;;;;;;;4.78;2.13;;;;;;;14.26;77.39;102676.13;4994468;28;20030;-80
2022/08/07 00:06:49;;;;;;;5.43;2.15;;;;;;;14.37;77.65;102675.78;4994764;28;20434;-80
2022/08/07 00:09:15;;;;;;;6.78;2.20;;;;;;;14.40;77.68;102667.63;4993485;28;20022;-80
2022/08/07 00:11:40;;;;;;;4.07;2.33;;;;;;;14.48;77.40;102672.00;4996283;28;20458;-79
2022/08/07 00:14:05;;;;;;;4.70;2.20;;;;;;;14.35;77.42;102669.91;4998695;28;20089;-79
2022/08/07 00:16:31;;;;;;;5.10;2.50;;;;;;;14.14;78.47;102662.66;4997342;28;20509;-81
2022/08/07 00:18:56;;;;;;;4.35;2.40;;;;;;;14.19;79.16;102665.56;4997519;28;20022;-79
2022/08/07 00:21:21;;;;;;;3.75;2.20;;;;;;;14.34;79.10;102663.09;4997274;28;20043;-80
2022/08/07 00:23:47;;;;;;;3.10;2.40;;;;;;;14.39;78.92;102658.22;4998655;28;20054;-80
2022/08/07 00:26:12;;;;;;;3.88;2.35;;;;;;;14.47;78.22;102661.75;4998700;28;20023;-80
2022/08/07 00:28:38;;;;;;;5.07;2.55;;;;;;;14.34;78.16;102664.91;4998694;28;20076;-80
2022/08/07 00:31:08;;;;;;;5.10;2.38;;;;;;;14.30;79.32;102660.97;4996970;28;20023;-80
2022/08/07 00:33:38;;;;;;;3.72;2.40;;;;;;;14.32;79.34;102657.25;4997200;28;20026;-79
2022/08/07 00:36:04;;;;;;;5.03;2.67;;;;;;;14.26;79.82;102650.09;4998179;28;20448;-79
2022/08/07 00:38:31;;;;;;;6.53;2.53;;;;;;;14.31;79.11;102653.03;4998150;28;20031;-79
2022/08/07 00:40:56;;;;;;;6.93;2.65;;;;;;;14.23;78.93;102640.03;4996517;28;20470;-79
2022/08/07 00:43:21;;;;;;;5.35;2.40;;;;;;;14.06;78.48;102648.84;4996602;28;20026;-79
2022/08/07 00:45:47;;;;;;;4.18;2.28;;;;;;;14.04;79.58;102638.63;4997359;28;20032;-80
2022/08/07 00:48:13;;;;;;;3.67;2.35;;;;;;;14.13;79.60;102644.63;4998211;28;20057;-79
2022/08/07 00:50:39;;;;;;;4.20;2.30;;;;;;;14.02;79.72;102647.56;4998119;28;20033;-79
2022/08/07 00:53:04;;;;;;;5.78;2.55;;;;;;;13.83;80.39;102643.50;4998240;28;20034;-79
2022/08/07 00:55:30;;;;;;;3.17;2.00;;;;;;;13.96;80.31;102639.44;4998094;28;20397;-79
2022/08/07 00:57:55;;;;;;;5.38;2.63;;;;;;;13.86;80.47;102638.78;4998519;28;20106;-79
2022/08/07 01:00:21;;;;;;;4.32;2.50;;;;;;;13.95;80.14;102639.59;4997856;28;20034;-79
2022/08/07 01:02:46;;;;;;;5.55;2.42;;;;;;;13.77;80.38;102637.16;4997351;28;20018;-79
2022/08/07 01:05:12;;;;;;;3.00;2.20;;;;;;;13.84;80.87;102638.16;4998130;28;20026;-80
2022/08/07 01:07:39;;;;;;;4.57;2.25;;;;;;;13.70;81.01;102634.41;4998368;28;20113;-79
2022/08/07 01:10:06;;;;;;;6.07;2.60;;;;;;;13.77;80.92;102639.75;4997696;28;20033;-79
2022/08/07 01:12:31;;;;;;;4.68;2.60;;;;;;;13.75;81.17;102633.91;4996449;28;20121;-80
2022/08/07 01:14:58;;;;;;;7.20;2.60;;;;;;;13.64;81.55;102640.25;4997460;28;20109;-81
2022/08/07 01:17:24;;;;;;;4.75;2.58;;;;;;;13.67;81.41;102631.34;4997784;28;20023;-79
2022/08/07 01:19:52;;;;;;;4.22;2.55;;;;;;;13.67;81.95;102639.13;4997879;28;20031;-79
2022/08/07 01:22:18;;;;;;;3.60;2.30;;;;;;;13.67;82.20;102632.13;4996424;28;20050;-79
2022/08/07 01:24:44;;;;;;;4.78;2.20;;;;;;;13.50;81.97;102638.28;4997107;28;20031;-80
2022/08/07 01:27:10;;;;;;;4.40;2.70;;;;;;;13.64;82.46;102640.25;4997883;28;20390;-79
2022/08/07 01:29:35;;;;;;;4.93;2.78;;;;;;;13.73;81.57;102626.28;4996766;28;20029;-79
2022/08/07 01:32:02;;;;;;;3.75;2.70;;;;;;;13.81;81.46;102637.63;4997766;28;20035;-79
2022/08/07 01:34:31;;;;;;;6.57;2.75;;;;;;;13.84;81.04;102635.56;4996241;28;20052;-79
2022/08/07 01:36:57;;;;;;;4.40;2.63;;;;;;;13.79;81.42;102635.22;4996506;28;20030;-81
2022/08/07 01:39:26;;;;;;;5.57;2.60;;;;;;;13.82;81.42;102632.28;4997579;28;20030;-79
2022/08/07 01:41:52;;;;;;;5.25;2.70;;;;;;;13.75;80.94;102628.72;4996609;28;20130;-79
2022/08/07 01:44:18;;;;;;;4.90;2.63;;;;;;;13.74;80.67;102629.69;4997262;28;20032;-79
2022/08/07 01:46:43;;;;;;;5.05;2.70;;;;;;;13.59;80.87;102628.72;4998500;28;20054;-79
2022/08/07 01:49:10;;;;;;;6.38;2.92;;;;;;;13.50;80.99;102628.72;4997502;28;20118;-79
2022/08/07 01:51:37;;;;;;;4.97;3.15;;;;;;;13.47;81.19;102623.84;4997280;28;20030;-79
2022/08/07 01:54:07;;;;;;;6.05;2.97;;;;;;;13.45;81.31;102618.00;4997582;28;20037;-79
2022/08/07 01:56:45;;;;;;;4.45;3.00;;;;;;;13.56;81.04;102616.06;4979546;28;20031;-79
2022/08/07 01:59:38;;;;;;;4.22;2.88;;;;;;;13.49;80.96;102623.66;4997078;28;20561;-79
2022/08/07 02:02:11;;;;;;;4.72;2.80;;;;;;;13.62;80.69;102620.59;4996941;28;20021;-79
2022/08/07 02:04:55;;;;;;;4.97;2.80;;;;;;;13.48;81.24;102622.84;4996754;28;20481;-79
2022/08/07 02:07:22;;;;;;;6.57;3.00;;;;;;;13.27;81.19;102620.72;4995520;28;20030;-79
2022/08/07 02:09:51;;;;;;;5.15;3.15;;;;;;;13.31;82.03;102613.44;4996583;28;20486;-79
2022/08/07 02:12:19;;;;;;;4.00;2.78;;;;;;;13.25;81.90;102611.44;4995352;28;20054;-79
2022/08/07 02:14:48;;;;;;;5.00;2.80;;;;;;;13.27;82.02;102618.13;4996393;28;20030;-79
2022/08/07 02:17:14;;;;;;;4.93;2.90;;;;;;;13.18;82.87;102610.47;5011575;28;20022;-79
2022/08/07 02:19:42;;;;;;;6.72;3.08;;;;;;;13.08;82.79;102603.63;4995188;28;20418;-78
2022/08/07 02:22:11;;;;;;;6.05;2.70;;;;;;;13.05;83.40;102606.53;4995824;28;20046;-79
2022/08/07 02:24:39;;;;;;;5.30;2.85;;;;;;;13.21;82.64;102613.56;4994642;28;20026;-79
2022/08/07 02:27:07;;;;;;;6.07;2.40;;;;;;;13.23;82.69;102613.38;4996011;28;20033;-79
2022/08/07 02:29:34;;;;;;;4.25;2.60;;;;;;;13.27;82.21;102604.34;4996128;28;20030;-79
2022/08/07 02:32:01;;;;;;;5.90;2.95;;;;;;;13.36;82.24;102613.75;4994547;28;20033;-79
2022/08/07 02:34:28;;;;;;;4.25;2.70;;;;;;;13.25;81.83;102614.88;4994505;28;20045;-79
2022/08/07 02:36:56;;;;;;;3.75;2.60;;;;;;;13.15;82.33;102610.75;4994495;28;20494;-79
2022/08/07 02:39:23;;;;;;;6.18;2.90;;;;;;;13.09;82.17;102607.84;4995794;28;20026;-79
2022/08/07 02:41:49;;;;;;;3.83;2.72;;;;;;;13.10;82.60;102608.66;4995923;28;20026;-79
2022/08/07 02:44:16;;;;;;;3.40;2.25;;;;;;;13.01;81.89;102600.03;4995594;28;20026;-78
2022/08/07 02:46:42;;;;;;;4.15;2.58;;;;;;;13.07;81.89;102612.38;4995926;28;20088;-80
2022/08/07 02:49:07;;;;;;;5.22;2.70;;;;;;;13.05;82.12;102608.31;4995772;28;20105;-79
2022/08/07 02:51:35;;;;;;;5.10;2.78;;;;;;;13.02;82.32;102606.03;4995642;28;20026;-79
2022/08/07 02:54:02;;;;;;;6.10;2.95;;;;;;;12.95;82.01;102597.28;4995567;28;20474;-79
2022/08/07 02:56:31;;;;;;;5.05;2.88;;;;;;;12.85;83.19;102600.78;4993986;28;20113;-78
2022/08/07 02:59:00;;;;;;;8.63;3.10;;;;;;;12.91;83.83;102608.94;4994466;28;20026;-79
2022/08/07 03:01:26;;;;;;;5.78;3.42;;;;;;;12.85;83.89;102612.97;4994040;28;20058;-78
2022/08/07 03:03:53;;;;;;;7.03;3.05;;;;;;;12.74;84.38;102600.28;4995198;28;20081;-78
2022/08/07 03:06:20;;;;;;;5.05;3.10;;;;;;;12.76;84.35;102600.94;4994375;28;20033;-78
2022/08/07 03:08:46;;;;;;;7.72;3.40;;;;;;;12.62;84.96;102603.13;4995110;28;20034;-78
2022/08/07 03:11:12;;;;;;;5.88;3.10;;;;;;;12.55;85.96;102602.16;4994160;28;20109;-79
2022/08/07 03:13:38;;;;;;;5.78;3.30;;;;;;;12.61;86.63;102598.94;4993742;28;20034;-79
2022/08/07 03:16:03;;;;;;;6.10;3.58;;;;;;;12.68;86.59;102603.50;4994802;28;20136;-78
2022/08/07 03:18:29;;;;;;;5.38;3.05;;;;;;;12.72;86.02;102602.22;4993596;28;20044;-79
2022/08/07 03:20:55;;;;;;;6.85;3.63;;;;;;;12.69;86.20;102595.56;4994583;28;20359;-78
2022/08/07 03:23:21;;;;;;;5.10;3.30;;;;;;;12.74;86.31;102590.69;4994491;28;20125;-79
2022/08/07 03:25:47;;;;;;;5.38;3.45;;;;;;;12.82;85.83;102593.31;4993522;28;20439;-79
2022/08/07 03:28:16;;;;;;;5.13;3.28;;;;;;;12.94;85.52;102590.44;4993376;28;20068;-78
2022/08/07 03:30:42;;;;;;;5.28;3.22;;;;;;;12.96;84.98;102591.09;4993509;28;20117;-78
2022/08/07 03:33:10;;;;;;;4.32;3.20;;;;;;;12.89;84.02;102593.53;4993446;28;20023;-78
2022/08/07 03:35:37;;;;;;;4.72;3.17;;;;;;;12.82;84.60;102597.72;4993310;28;20501;-78
2022/08/07 03:38:06;;;;;;;4.30;2.95;;;;;;;12.64;85.75;102597.81;4994614;28;20018;-78
2022/08/07 03:40:31;;;;;;;5.05;3.28;;;;;;;12.70;86.25;102598.97;4993246;28;20113;-78
2022/08/07 03:42:57;;;;;;;5.53;3.08;;;;;;;12.76;85.35;102593.97;4994705;28;20033;-78
2022/08/07 03:45:25;;;;;;;6.00;3.30;;;;;;;12.82;84.77;102593.31;4993033;28;20121;-78
2022/08/07 03:47:51;;;;;;;7.28;3.40;;;;;;;12.74;85.35;102598.47;4994136;28;20502;-78
2022/08/07 03:50:21;;;;;;;6.22;3.08;;;;;;;12.78;85.76;102589.44;4993193;28;20034;-78
2022/08/07 03:52:49;;;;;;;5.68;3.13;;;;;;;12.56;85.48;102585.63;4993400;28;20033;-78
2022/08/07 03:55:15;;;;;;;5.60;3.10;;;;;;;12.58;86.16;102582.88;4994180;28;20034;-78
2022/08/07 03:57:41;;;;;;;6.13;3.30;;;;;;;12.63;85.59;102593.59;4994564;28;20510;-78
2022/08/07 04:00:08;;;;;;;5.65;2.97;;;;;;;12.69;83.84;102584.34;4992936;28;20033;-79
2022/08/07 04:02:34;;;;;;;5.95;2.78;;;;;;;12.65;83.92;102581.28;4993236;28;20026;-79
2022/08/07 04:05:00;;;;;;;4.47;2.70;;;;;;;12.63;84.21;102593.59;4994251;28;20424;-79
2022/08/07 04:07:25;;;;;;;4.38;2.45;;;;;;;12.46;84.13;102586.69;4992958;28;20046;-78
2022/08/07 04:09:51;;;;;;;5.53;2.88;;;;;;;12.35;84.65;102587.78;4993144;28;20023;-79
2022/08/07 04:12:21;;;;;;;10.10;2.70;;;;;;;12.37;85.11;102591.88;4994690;28;20080;-79
2022/08/07 04:14:48;;;;;;;3.88;2.40;;;;;;;12.32;84.94;102590.69;4993286;28;20478;-78
2022/08/07 04:17:14;;;;;;;5.68;2.92;;;;;;;12.41;85.05;102589.78;4993160;28;20037;-79
2022/08/07 04:19:41;;;;;;;3.67;2.58;;;;;;;12.46;84.67;102591.88;4994688;28;20022;-79
2022/08/07 04:22:06;;;;;;;4.40;2.85;;;;;;;12.62;83.87;102581.59;4994341;28;20081;-79
2022/08/07 04:24:32;;;;;;;4.65;3.08;;;;;;;12.68;83.84;102586.16;4994459;28;20022;-79
2022/08/07 04:26:58;;;;;;;7.63;2.75;;;;;;;12.83;83.75;102584.59;4993285;28;20034;-79
2022/08/07 04:29:23;;;;;;;3.78;2.40;;;;;;;12.86;82.55;102591.25;4993137;28;20019;-78
2022/08/07 04:31:49;;;;;;;4.05;2.75;;;;;;;12.63;83.35;102591.81;4993071;28;20026;-79
2022/08/07 04:34:15;;;;;;;4.72;2.70;;;;;;;12.49;84.12;102587.22;4993024;28;20053;-79
2022/08/07 04:36:41;;;;;;;3.97;2.70;;;;;;;12.70;84.55;102597.19;4994403;28;20162;-79
2022/08/07 04:39:07;;;;;;;4.20;2.50;;;;;;;12.81;83.77;102599.50;4994571;28;20474;-78
2022/08/07 04:41:32;;;;;;;5.90;2.90;;;;;;;12.76;83.16;102593.16;4993519;28;20022;-79
2022/08/07 04:44:00;;;;;;;5.15;2.80;;;;;;;12.86;82.48;102602.44;4994349;28;20392;-78
2022/08/07 04:46:37;;;;;;;4.38;2.63;;;;;;;12.90;82.71;102592.56;4992957;28;20030;-79
2022/08/07 04:49:26;;;;;;;4.65;2.88;;;;;;;12.96;82.68;102598.91;4994155;28;20062;-79
2022/08/07 04:52:14;;;;;;;6.45;3.00;;;;;;;12.98;83.00;102596.97;4992809;28;20073;-79
2022/08/07 04:55:00;;;;;;;5.07;2.90;;;;;;;12.96;82.55;102604.88;4992952;28;20425;-79
2022/08/07 04:57:34;;;;;;;6.57;2.75;;;;;;;12.98;82.48;102602.16;4995242;28;20026;-79
2022/08/07 05:00:13;;;;;;;4.20;2.70;;;;;;;13.04;82.64;102604.91;4998287;28;20030;-79
2022/08/07 05:02:57;;;;;;;6.55;2.80;;;;;;;13.12;82.12;102611.09;4997850;28;20026;-79
2022/08/07 05:05:42;;;;;;;4.22;2.55;;;;;;;13.17;82.09;102614.81;4997807;28;20026;-79
2022/08/07 05:08:25;;;;;;;4.68;2.72;;;;;;;13.14;81.93;102617.75;4997884;28;20084;-79
2022/08/07 05:11:00;;;;;;;4.38;2.70;;;;;;;13.08;82.12;102623.56;4997800;28;20113;-78
2022/08/07 05:13:38;;;;;;;8.35;2.72;;;;;;;12.99;82.86;102620.16;4996248;28;20026;-79
2022/08/07 05:16:07;;;;;;;3.97;2.53;;;;;;;13.10;82.44;102612.06;4997695;28;20027;-79
2022/08/07 05:18:38;;;;;;;3.97;2.47;;;;;;;13.26;81.80;102621.72;4997469;28;20026;-79
2022/08/07 05:21:11;;;;;;;5.80;2.80;;;;;;;13.40;81.45;102614.25;4995813;28;20046;-79
2022/08/07 05:23:46;;;;;;;4.50;2.72;;;;;;;13.50;81.18;102623.53;4997362;28;20033;-79
2022/08/07 05:26:16;;;;;;;6.47;2.90;;;;;;;13.63;80.90;102619.63;4995941;28;20501;-79
2022/08/07 05:28:43;;;;;;;4.43;2.80;;;;;;;13.74;81.04;102616.69;4997407;28;20105;-79
2022/08/07 05:31:12;;;;;;;4.28;2.70;;;;;;;13.79;80.88;102619.63;4996017;28;20113;-79
2022/08/07 05:33:38;;;;;;;4.88;2.80;;;;;;;13.94;79.72;102610.19;4997155;28;20050;-79
2022/08/07 05:36:06;;;;;;;4.70;2.90;;;;;;;14.04;79.65;102617.00;4995563;28;20022;-78
2022/08/07 05:38:33;;;;;;;3.75;2.65;;;;;;;13.93;80.31;102612.97;4996868;28;20030;-78
2022/08/07 05:41:00;;;;;;;7.85;2.70;;;;;;;14.10;80.79;102619.75;4995530;28;20363;-78
2022/08/07 05:43:25;;;;;;;5.40;2.60;;;;;;;14.26;79.96;102616.31;4996509;28;20446;-78
2022/08/07 05:45:51;;;;;;;5.68;2.72;;;;;;;14.50;79.18;102618.03;4995462;28;20022;-78
2022/08/07 05:48:18;;;;;;;5.93;3.03;;;;;;;14.47;78.89;102633.94;4995615;28;20032;-78
2022/08/07 05:50:44;;;;;;;5.18;2.83;;;;;;;14.68;77.88;102628.25;4997050;28;20061;-78
2022/08/07 05:53:09;;;;;;;3.55;2.58;;;;;;;14.77;77.64;102614.22;4996534;28;20482;-78
2022/08/07 05:55:35;;;;;;;9.93;2.90;;;;;;;15.06;76.29;102613.56;4996570;28;20022;-79
2022/08/07 05:58:01;;;;;;;5.97;3.25;;;;;;;15.26;75.37;102602.72;4996560;28;20041;-79
2022/08/07 06:00:29;;;;;;;6.50;3.10;;;;;;;15.48;74.35;102614.91;4995278;28;20028;-79
2022/08/07 06:02:56;;;;;;;5.60;2.80;;;;;;;15.57;74.38;102616.47;4996445;28;20033;-79
2022/08/07 06:05:25;;;;;;;3.97;2.55;;;;;;;19.76;60.63;102619.06;4995414;28;20378;-80
2022/08/07 06:07:51;;;;;;;8.55;2.70;;;;;;;26.19;42.04;102622.47;4994931;28;20022;-80
2022/08/07 06:10:17;;;;;;;3.00;2.35;;;;;;;27.62;38.09;102615.75;4995852;28;20030;-80
2022/08/07 06:12:42;;;;;;;5.72;2.50;;;;;;;28.31;36.11;102628.00;4996205;28;20390;-80
2022/08/07 06:15:10;;;;;;;4.38;2.70;;;;;;;28.99;33.56;102615.31;4996576;28;20037;-80
2022/08/07 06:17:36;;;;;;;3.50;2.40;;;;;;;29.47;33.31;102628.34;4995995;28;20030;-80
2022/08/07 06:20:01;;;;;;;4.68;2.53;;;;;;;29.65;32.64;102621.66;4996289;28;20386;-81
2022/08/07 06:22:28;;;;;;;5.10;2.30;;;;;;;29.72;32.51;102618.69;4995447;28;20502;-81
2022/08/07 06:24:56;;;;;;;5.82;2.38;;;;;;;29.66;33.30;102615.25;4996324;28;20023;-81
2022/08/07 06:27:23;;;;;;;5.97;2.40;;;;;;;30.29;32.48;102620.03;4994786;28;20053;-81
2022/08/07 06:29:49;;;;;;;3.40;2.38;;;;;;;30.25;31.42;102622.47;4997167;28;20053;-81
2022/08/07 06:32:14;;;;;;;5.47;2.60;;;;;;;30.84;29.49;102617.25;4998367;28;20045;-81
2022/08/07 06:34:40;;;;;;;4.47;2.75;;;;;;;31.38;29.49;102627.72;5010371;28;20041;-81
2022/08/07 06:37:05;;;;;;;3.97;2.67;;;;;;;31.49;28.54;102628.41;4995340;28;20065;-81
2022/08/07 06:39:33;;;;;;;3.93;2.40;;;;;;;29.78;31.24;102621.09;4996269;28;20502;-81
2022/08/07 06:42:06;;;;;;;6.88;2.40;;;;;;;31.03;28.65;102634.97;4996241;28;20281;-80
2022/08/07 06:44:33;;;;;;;4.35;2.40;;;;;;;31.83;27.37;102622.13;4995271;28;20374;-81
2022/08/07 06:46:59;;;;;;;6.10;2.40;;;;;;;31.58;28.35;102628.56;4996895;28;20026;-81
2022/08/07 06:49:25;;;;;;;4.00;2.22;;;;;;;32.25;28.07;102629.31;4995858;28;20422;-81
2022/08/07 06:51:52;;;;;;;3.80;2.22;;;;;;;31.76;27.80;102622.44;4995670;28;20022;-81
2022/08/07 06:54:19;;;;;;;4.60;2.00;;;;;;;31.41;28.38;102621.78;4994661;28;20022;-82
2022/08/07 06:56:46;;;;;;;2.97;2.15;;;;;;;32.07;27.80;102619.41;4996243;28;20026;-82
2022/08/07 06:59:18;;;;;;;4.63;2.17;;;;;;;32.09;27.68;102623.41;4994413;28;20034;-74
2022/08/07 07:01:44;;;;;;;3.33;1.60;;;;;;;31.56;28.35;102625.38;4994741;28;20034;-74
2022/08/07 07:04:11;;;;;;;2.92;1.77;;;;;;;31.81;28.12;102624.28;4994876;28;20022;-74
2022/08/07 07:06:36;;;;;;;3.15;1.67;;;;;;;32.32;27.92;102623.59;4994728;28;20018;-73
2022/08/07 07:09:24;;;;;;;3.20;1.70;;;;;;;31.61;28.29;102630.66;4994637;28;20478;-74
2022/08/07 07:12:05;;;;;;;3.58;1.70;;;;;;;31.90;28.18;102622.56;4994807;28;20479;-74
2022/08/07 07:14:52;;;;;;;3.13;1.70;;;;;;;31.67;28.23;102619.63;4994384;28;20101;-74
2022/08/07 07:17:31;;;;;;;3.63;1.80;;;;;;;31.29;29.48;102625.94;4998670;28;20601;-73
2022/08/07 07:20:01;;;;;;;2.47;1.65;;;;;;;31.22;29.85;102629.72;4994389;28;20073;-72
2022/08/07 07:22:28;;;;;;;2.70;1.70;;;;;;;31.34;30.84;102626.66;4992379;28;20125;-72
2022/08/07 07:24:54;;;;;;;3.58;1.90;;;;;;;31.08;30.07;102618.13;4993008;28;20041;-73
2022/08/07 07:27:23;;;;;;;3.13;2.05;;;;;;;31.35;29.85;102624.78;4994244;28;20050;-72
2022/08/07 07:29:53;;;;;;;5.07;2.00;;;;;;;30.38;30.87;102625.59;4992898;28;20029;-72
2022/08/07 07:32:20;;;;;;;3.80;2.03;;;;;;;31.38;30.01;102621.56;4994298;28;20052;-73
2022/08/07 07:34:51;;;;;;;2.20;1.80;;;;;;;30.31;30.72;102621.34;4993967;28;20497;-73
2022/08/07 07:37:17;;;;;;;3.40;2.15;;;;;;;31.42;29.81;102625.28;4994143;28;20114;-72
2022/08/07 07:39:44;;;;;;;4.78;2.10;;;;;;;30.56;31.18;102628.41;4993998;28;20080;-72
2022/08/07 07:42:10;;;;;;;3.58;2.20;;;;;;;29.94;32.30;102623.66;4992828;28;20030;-72
2022/08/07 07:44:40;;;;;;;5.45;2.38;;;;;;;28.33;35.20;102612.59;4994058;28;20397;-72
2022/08/07 07:47:07;;;;;;;4.53;2.20;;;;;;;27.87;35.00;102612.44;4992708;28;20030;-72
2022/08/07 07:49:35;;;;;;;3.40;1.98;;;;;;;26.87;37.63;102610.44;4992826;28;20436;-72
2022/08/07 07:52:02;;;;;;;5.55;2.42;;;;;;;25.35;40.30;102603.09;4992719;28;20030;-72
2022/08/07 07:54:29;;;;;;;8.25;2.40;;;;;;;24.83;41.71;102599.81;4992691;28;20026;-72
2022/08/07 07:56:57;;;;;;;5.45;2.17;;;;;;;24.62;41.91;102598.69;4992532;28;20039;-72
2022/08/07 07:59:25;;;;;;;3.85;2.15;;;;;;;24.88;42.32;102600.72;4993785;28;20109;-72
2022/08/07 08:01:51;;;;;;;3.25;1.80;;;;;;;25.15;40.96;102600.13;4993991;28;20490;-72
2022/08/07 08:04:19;;;;;;;4.78;2.05;;;;;;;24.93;41.61;102600.81;4994048;28;20038;-72
2022/08/07 08:06:46;;;;;;;4.30;1.90;;;;;;;24.58;41.75;102600.19;4993811;28;20113;-72
2022/08/07 08:09:13;;;;;;;3.95;2.22;;;;;;;24.48;42.83;102596.31;4993782;28;20026;-72
2022/08/07 08:11:40;;;;;;;4.05;2.15;;;;;;;24.79;41.97;102601.34;4993802;28;20494;-72
2022/08/07 08:14:05;;;;;;;2.83;1.95;;;;;;;24.98;42.23;102594.81;4992505;28;20343;-72
2022/08/07 08:16:38;;;;;;;2.42;1.80;;;;;;;24.80;41.68;102593.19;4992315;28;20037;-72
2022/08/07 08:19:07;;;;;;;3.10;2.10;;;;;;;25.21;40.40;102594.66;4993791;28;20034;-72
2022/08/07 08:27:25;;;;;;;3.90;1.90;;;;;;;25.21;38.72;102585.94;4991509;28;20049;-72
2022/08/07 08:29:56;;;;;;;3.33;1.60;;;;;;;25.61;37.99;102588.38;4991487;28;20035;-73
2022/08/07 08:32:24;;;;;;;2.45;1.80;;;;;;;25.01;38.16;102585.59;4993536;28;20042;-72
2022/08/07 08:34:52;;;;;;;4.70;1.80;;;;;;;25.16;38.57;102577.91;4997640;28;20509;-72
2022/08/07 08:37:22;;;;;;;4.10;2.00;;;;;;;25.15;38.89;102584.25;4997377;28;20118;-72
2022/08/07 08:39:50;;;;;;;3.03;1.80;;;;;;;25.52;35.96;102579.25;4997365;28;20504;-73
2022/08/07 08:42:34;;;;;;;3.67;1.88;;;;;;;25.21;36.51;102572.72;4997315;28;20026;-72
2022/08/07 08:45:17;;;;;;;3.88;2.03;;;;;;;25.25;37.54;102578.31;4996045;28;20027;-72
2022/08/07 08:47:51;;;;;;;;;;;;;;;24.82;38.88;102577.09;4997622;28;20030;-72
2022/08/07 08:50:23;;;;;;;4.75;1.77;;;;;;;25.30;35.40;102570.47;4997098;28;19914;-72
2022/08/07 08:53:14;;;;;;;2.65;1.60;;;;;;;25.64;36.48;102574.63;4997153;28;20030;-73
2022/08/07 08:55:55;;;;;;;1.80;1.55;;;;;;;26.05;34.88;102580.44;4989710;28;20034;-71
2022/08/07 08:58:35;;;;;;;7.47;1.90;;;;;;;26.55;35.05;102568.78;4997072;28;20077;-72
2022/08/07 09:01:12;;;;;;;3.83;2.13;;;;;;;25.53;36.10;102567.59;4997147;28;20080;-74
2022/08/07 09:03:49;;;;;;;2.78;1.67;;;;;;;26.03;35.65;102565.84;4995728;28;20045;-73
2022/08/07 09:06:31;;;;;;;4.65;1.98;;;;;;;26.76;33.85;102584.91;4996991;28;20026;-73
2022/08/07 09:09:53;;;;;;;3.47;1.88;;;;;;;26.50;34.55;102573.28;4995672;28;20057;-74
2022/08/07 09:12:45;;;;;;;3.88;1.75;;;;;;;25.78;35.78;102568.97;4995434;28;20402;-74
2022/08/07 09:15:37;;;;;;;5.07;1.88;;;;;;;26.30;36.77;102576.50;5003709;28;20038;-73
2022/08/07 09:18:24;;;;;;;4.35;1.80;;;;;;;24.98;37.50;102573.66;4995448;28;20062;-74
2022/08/07 09:21:22;;;;;;;2.50;1.63;;;;;;;25.38;36.71;102580.63;4996603;28;20061;-73
2022/08/07 09:23:57;;;;;;;4.50;1.80;;;;;;;26.57;35.97;102573.06;4996677;28;20038;-73
2022/08/07 09:27:00;;;;;;;2.95;1.75;;;;;;;27.17;35.12;102571.97;4995235;28;20045;-73
2022/08/07 09:29:53;;;;;;;;;;;;;;;27.26;34.86;102572.28;4996920;28;20156;-73
2022/08/07 09:32:44;;;;;;;2.33;1.67;;;;;;;25.91;36.61;102576.56;4996498;28;19964;-73
2022/08/07 09:35:27;;;;;;;3.55;2.00;;;;;;;26.75;36.24;102585.94;4995094;28;20022;-73
2022/08/07 09:38:11;;;;;;;3.20;1.80;;;;;;;26.38;35.81;102576.03;4995104;28;20469;-72
2022/08/07 09:41:01;;;;;;;3.03;1.77;;;;;;;26.40;35.86;102576.56;4995071;28;20023;-73
2022/08/07 09:43:41;;;;;;;3.05;1.95;;;;;;;26.22;37.50;102566.34;4995857;28;20026;-73
2022/08/07 09:46:24;;;;;;;3.60;1.80;;;;;;;26.72;36.83;102565.22;4996023;28;20023;-73
2022/08/07 09:48:53;;;;;;;5.63;2.17;;;;;;;26.45;36.91;102562.59;4994808;28;20049;-72
2022/08/07 09:51:58;;;;;;;4.60;1.90;;;;;;;25.33;38.44;102559.38;4996149;28;20026;-72
2022/08/07 09:54:56;;;;;;;3.25;1.92;;;;;;;27.05;36.65;102558.84;4996219;28;20361;-72
2022/08/07 09:57:48;;;;;;;4.40;2.10;;;;;;;27.66;35.11;102563.72;5006774;28;20048;-72
2022/08/07 10:00:15;;;;;;;5.32;1.92;;;;;;;27.18;35.88;102549.66;4995936;28;20029;-72
2022/08/07 10:03:12;;;;;;;5.05;2.20;;;;;;;27.51;34.62;102553.84;4995867;28;20022;-72
2022/08/07 10:06:05;;;;;;;2.90;2.08;;;;;;;27.51;34.57;102547.75;4995917;28;20053;-72
2022/08/07 10:09:10;;;;;;;2.50;1.90;;;;;;;27.55;34.18;102546.16;4995836;28;20596;-72
2022/08/07 10:11:54;;;;;;;2.60;1.95;;;;;;;26.78;34.87;102551.75;4994552;28;20026;-73
2022/08/07 10:14:48;;;;;;;5.13;1.80;;;;;;;27.67;33.16;102544.88;4994886;28;20018;-72
2022/08/07 10:17:49;;;;;;;2.45;1.80;;;;;;;27.38;33.60;102541.81;4995676;28;20022;-72
2022/08/07 10:20:23;;;;;;;2.63;1.70;;;;;;;28.19;31.51;102532.56;4994243;28;20034;-72
2022/08/07 10:22:55;;;;;;;3.03;1.70;;;;;;;28.02;31.93;102532.78;4995383;28;20042;-72
2022/08/07 10:25:57;;;;;;;3.08;1.80;;;;;;;26.75;32.29;102525.75;4994217;28;20482;-71
2022/08/07 10:28:51;;;;;;;5.32;1.80;;;;;;;27.21;32.32;102518.09;4995482;28;20038;-72
2022/08/07 10:31:47;;;;;;;3.97;1.75;;;;;;;26.98;31.47;102519.28;4995515;28;20078;-72
2022/08/07 10:34:53;;;;;;;3.55;1.77;;;;;;;27.20;31.45;102505.91;4994063;28;20022;-72
2022/08/07 10:37:30;;;;;;;4.28;1.70;;;;;;;27.43;31.97;102503.91;4981588;28;20065;-72
2022/08/07 10:40:02;;;;;;;3.72;1.60;;;;;;;27.66;30.90;102505.31;4995238;28;20030;-72
2022/08/07 10:43:05;;;;;;;2.90;1.63;;;;;;;26.60;32.14;102500.97;4995212;28;20026;-72
2022/08/07 10:45:41;;;;;;;3.45;1.77;;;;;;;26.27;32.11;102506.25;4995135;28;20034;-72
2022/08/07 10:48:13;;;;;;;2.25;1.50;;;;;;;27.56;30.89;102506.06;4993808;28;20033;-71
2022/08/07 10:50:44;;;;;;;2.30;1.45;;;;;;;27.63;30.22;102497.88;4993659;28;20045;-72
2022/08/07 10:53:24;;;;;;;2.47;1.43;;;;;;;27.87;30.06;102501.66;4994835;28;20487;-72
2022/08/07 10:56:05;;;;;;;2.60;1.60;;;;;;;27.97;29.33;102498.25;4993382;28;20044;-72
2022/08/07 10:58:50;;;;;;;2.75;1.75;;;;;;;27.31;30.05;102485.53;4995027;28;20034;-72
2022/08/07 11:01:30;;;;;;;3.33;1.77;;;;;;;27.43;30.51;102486.09;4994830;28;20129;-72
2022/08/07 11:04:24;;;;;;;3.63;1.90;;;;;;;27.80;29.67;102485.19;4994730;28;20030;-72
2022/08/07 11:07:19;;;;;;;2.00;1.55;;;;;;;27.40;30.10;102467.25;4994628;28;20501;-72
2022/08/07 11:09:51;;;;;;;3.67;1.90;;;;;;;25.90;31.37;102479.66;4993441;28;20038;-72
2022/08/07 11:12:26;;;;;;;2.97;1.50;;;;;;;26.12;31.17;102479.59;4993380;28;20496;-72
2022/08/07 11:14:57;;;;;;;2.38;1.55;;;;;;;27.28;29.89;102472.00;4994491;28;20030;-73
2022/08/07 11:17:28;;;;;;;2.67;1.80;;;;;;;27.99;29.04;102479.38;4993546;28;20030;-73
2022/08/07 11:20:41;;;;;;;3.40;2.27;;;;;;;28.04;31.52;102468.75;4994448;28;20031;-73
2022/08/07 11:23:45;;;;;;;4.30;2.00;;;;;;;27.16;31.35;102459.72;4953528;29;20043;-72
2022/08/07 11:26:25;;;;;;;2.63;2.00;;;;;;;28.22;30.40;102473.56;4976678;28;20454;-72
2022/08/07 11:29:01;;;;;;;10.80;3.28;;;;;;;28.53;32.84;102466.41;4994405;28;20049;-73
2022/08/07 11:31:49;;;;;;;10.02;2.90;;;;;;;28.49;32.71;102468.00;4994263;28;20033;-72
2022/08/07 11:34:20;;;;;;;3.50;2.53;;;;;;;28.36;31.50;102460.53;4993827;28;20390;-73
2022/08/07 11:37:09;;;;;;;4.93;2.50;;;;;;;27.93;33.10;102459.19;4992893;28;20537;-72
2022/08/07 11:39:58;;;;;;;4.57;2.60;;;;;;;28.67;32.93;102457.88;4994172;28;20030;-73
2022/08/07 11:42:46;;;;;;;5.75;2.20;;;;;;;28.83;31.30;102462.13;4994171;28;20217;-73
2022/08/07 11:45:33;;;;;;;4.93;2.70;;;;;;;28.44;31.01;102459.25;4990150;28;20034;-72
2022/08/07 11:48:17;;;;;;;5.72;2.50;;;;;;;28.52;32.14;102448.84;4993999;28;20034;-73
2022/08/07 11:50:58;;;;;;;4.72;2.90;;;;;;;28.77;31.51;102452.53;4994135;28;20129;-73
2022/08/07 11:53:52;;;;;;;7.03;2.92;;;;;;;27.95;32.78;102447.22;4992601;28;20037;-73
2022/08/07 11:56:20;;;;;;;5.55;2.90;;;;;;;28.31;32.80;102445.41;4993797;28;20030;-73
2022/08/07 11:59:07;;;;;;;9.00;3.08;;;;;;;28.81;31.41;102444.81;4993936;28;20049;-74